• Join FlightAware (Why Join?)
  • Login
  • US Flag 
08:23PM EST


 

Airport Tracker/Info


-or-


 

Live Flight TrackerFlight Track Log ✈ ASQ4187 ✈ 23-Jun-2013 ✈ KBNA - KEWR

Flight Track Log - Related Links

Times and Time Zones

All times are in EDT time to prevent confusion due to time zone crossing. See the ASQ4187 flight status page for this flight to view local times or setup timezone preferences in your user account.

Time Position Orientation Groundspeed Altitude Reporting Facility
EDT Latitude Longitude Course Direction KTS MPH feet Rate Location/Type
12:49PM 36.1500 -86.7333 68° East 202 232 2,100  Level Nashville TRACON
12:51PM 36.0833 -86.7000 158° South 258 297 5,900 2,400 Climbing Nashville TRACON
12:52PM 36.1826 -86.1871 76° East  Level FlightAware Approximate
12:52PM 36.1133 -86.5683 74° East 268 308 9,600  Level Indianapolis Center
12:53PM 36.2000 -86.0668 80° East  Level FlightAware Approximate
12:53PM 36.1306 -86.4697 78° East 287 330 11,800  Level Indianapolis Center
12:54PM 36.2438 -85.9573 64° Northeast  Level FlightAware Approximate
12:54PM 36.1494 -86.3619 78° East 315 362 13,000  Level Indianapolis Center
12:55PM 36.2847 -85.8461 68° East  Level FlightAware Approximate
12:56PM 36.1750 -86.2175 78° East 346 398 14,200  Level Memphis Center
12:57PM 36.1975 -86.0850 78° East 380 437 15,400 1,200 Climbing Memphis Center
12:58PM 36.2369 -85.9594 69° East 386 444 16,600 1,260 Climbing Memphis Center
12:59PM 36.2825 -85.8308 66° East 402 463 17,900 1,440 Climbing Indianapolis Center
01:00PM 36.3308 -85.6953 66° East 396 456 19,600 1,500 Climbing Indianapolis Center
01:01PM 36.3722 -85.5717 67° East 389 448 21,100 1,380 Climbing Indianapolis Center
01:02PM 36.4125 -85.4456 68° East 391 450 22,500 1,200 Climbing Indianapolis Center
01:03PM 36.4394 -85.3108 76° East 399 459 23,700 1,020 Climbing Indianapolis Center
01:04PM 36.4631 -85.1733 78° East 403 464 24,700 960 Climbing Indianapolis Center
01:05PM 36.5019 -85.0361 71° East 417 480 25,800 1,020 Climbing Indianapolis Center
01:06PM 36.5694 -84.9200 54° Northeast 416 479 26,900 1,260 Climbing Indianapolis Center
01:07PM 36.6147 -84.7528 71° East 419 482 28,500 1,380 Climbing Indianapolis Center
01:08PM 36.6439 -84.6125 75° East 416 479 29,800 1,200 Climbing Indianapolis Center
01:09PM 36.6686 -84.4886 76° East 413 475 31,000 1,260 Climbing Indianapolis Center
01:10PM 36.7036 -84.3289 75° East 409 471 32,500 1,320 Climbing Indianapolis Center
01:11PM 36.7356 -84.1939 74° East 405 466 33,800 1,140 Climbing Indianapolis Center
01:12PM 36.7608 -84.0594 77° East 399 459 34,900 540 Climbing Indianapolis Center
01:13PM 36.7881 -83.9222 76° East 406 467 35,000  Climbing Indianapolis Center
01:14PM 36.8189 -83.7775 75° East 432 497 35,000  Level Indianapolis Center
01:15PM 36.8781 -83.6092 66° East 460 529 35,000  Level Indianapolis Center
01:16PM 36.9331 -83.4597 65° Northeast 473 544 35,000  Level Indianapolis Center
01:17PM 36.9914 -83.3086 64° Northeast 480 552 35,000  Level Indianapolis Center
01:18PM 37.0411 -83.1483 69° East 486 559 35,000  Level Indianapolis Center
01:19PM 37.0889 -82.9886 69° East 483 556 35,000  Level Indianapolis Center
01:20PM 37.1383 -82.8275 69° East 487 560 35,000  Level Indianapolis Center
01:21PM 37.1872 -82.6697 69° East 481 554 35,000  Level Indianapolis Center
01:22PM 37.2383 -82.5122 68° East 484 557 35,000  Level Indianapolis Center
01:23PM 37.3006 -82.3294 67° East 485 558 35,000  Level Indianapolis Center
01:24PM 37.3542 -82.1747 66° East 483 556 35,000  Level Indianapolis Center
01:25PM 37.4078 -82.0222 66° East 478 550 35,000  Level Indianapolis Center
01:27PM 37.4656 -81.8717 64° Northeast 478 550 35,000  Level Indianapolis Center
01:28PM 37.5294 -81.7236 61° Northeast 480 552 35,000  Level Indianapolis Center
01:29PM 37.5914 -81.5764 62° Northeast 476 548 35,000  Level Indianapolis Center
01:30PM 37.6619 -81.4117 62° Northeast 478 550 35,000  Level Indianapolis Center
01:31PM 37.7219 -81.2675 62° Northeast 478 550 35,000  Level Indianapolis Center
01:32PM 37.7781 -81.1208 64° Northeast 477 549 35,000  Level Indianapolis Center
01:33PM 37.7933 -80.9325 84° East 460 529 35,000  Level Indianapolis Center
01:34PM 37.8033 -80.7739 85° East 465 535 35,000  Level Indianapolis Center
01:35PM 37.8142 -80.6042 85° East 463 533 35,000  Level Indianapolis Center
01:36PM 37.8231 -80.4897 84° East 456 525 35,000  Level Washington Center
01:37PM 37.8342 -80.3142 85° East 461 531 35,000  Level Washington Center
01:38PM 37.8447 -80.1519 85° East 461 531 35,000  Level Washington Center
01:39PM 37.8694 -79.9928 79° East 456 525 35,000  Level Washington Center
01:40PM 37.9717 -79.8750 42° Northeast 452 520 35,000  Level Washington Center
01:41PM 38.0739 -79.7569 42° Northeast 469 540 35,000  Level Washington Center
01:42PM 38.1711 -79.6592 38° Northeast 480 552 35,000  Level Washington Center
01:43PM 38.2769 -79.5486 39° Northeast 485 558 35,000  Level Washington Center
01:44PM 38.3725 -79.4292 44° Northeast 490 564 35,000  Level Washington Center
01:45PM 38.4478 -79.2953 54° Northeast 476 548 35,000  Level Washington Center
01:46PM 38.5028 -79.1256 67° East 464 534 35,000  Level Washington Center
01:47PM 38.5242 -78.9647 80° East 455 524 35,000  Level Washington Center
01:48PM 38.5367 -78.8167 84° East 455 524 35,000  Level Washington Center
01:49PM 38.5511 -78.6581 83° East 455 524 35,000  Level Washington Center
01:50PM 38.5636 -78.4939 84° East 460 529 35,000  Level Washington Center
01:51PM 38.5778 -78.3325 84° East 460 529 35,000  Level Washington Center
01:52PM 38.5919 -78.1681 84° East 460 529 35,000  Level Washington Center
01:53PM 38.6058 -78.0014 84° East 460 529 35,000  Level Washington Center
01:54PM 38.6192 -77.8397 84° East 460 529 35,000  Level Washington Center
01:55PM 38.6306 -77.6725 85° East 460 529 35,000  Level Washington Center
01:56PM 38.6436 -77.5133 84° East 460 529 35,000  Level Washington Center
01:57PM 38.6567 -77.3569 84° East 448 516 35,000  Level Washington Center
01:58PM 38.6692 -77.2031 84° East 442 509 35,000  Level Washington Center
01:59PM 38.7086 -77.0575 71° East 436 502 35,000  Level Washington Center
02:00PM 38.7872 -76.9258 53° Northeast 437 503 35,000  Level Washington Center
02:01PM 38.8592 -76.8072 52° Northeast 455 524 35,000 -540 Level Washington Center
02:02PM 38.9378 -76.6697 54° Northeast 455 524 34,000 -1,440 Descending Washington Center
02:03PM 39.0222 -76.5186 54° Northeast 450 518 32,200 -1,860 Descending Washington Center
02:04PM 39.1150 -76.4075 43° Northeast 450 518 30,300 -1,860 Descending Washington Center
02:05PM 39.2094 -76.3014 41° Northeast 450 518 28,500 -1,800 Descending Washington Center
02:06PM 39.2956 -76.1761 48° Northeast 450 518 26,700 -1,740 Descending Washington Center
02:07PM 39.3897 -76.0803 38° Northeast 474 545 25,100 -1,740 Descending Washington Center
02:08PM 39.4672 -75.9597 50° Northeast 448 516 23,300 -1,620 Descending Washington Center
02:09PM 39.5425 -75.8336 52° Northeast 440 506 22,000 -660 Descending Washington Center
02:10PM 39.6197 -75.7072 52° Northeast 440 506 22,000  Level Washington Center
02:11PM 39.6989 -75.5861 50° Northeast 440 506 22,000 -60 Level Washington Center
02:12PM 39.7886 -75.4781 43° Northeast 440 506 21,900 -1,680 Descending Washington Center
02:13PM 39.8739 -75.3753 43° Northeast 429 494 18,700 -3,660 Descending Washington Center
02:14PM 39.9589 -75.2719 43° Northeast 416 479 14,600 -3,420 Descending Washington Center
02:15PM 40.0358 -75.1797 43° Northeast 395 455 12,000 -1,560 Descending Washington Center
02:16PM 40.1667 -75.0167 44° Northeast 353 406 10,600 -1,020 Descending New York TRACON
02:17PM 40.2333 -74.9333 44° Northeast 307 353 9,300 -1,260 Descending New York TRACON
02:18PM 40.2833 -74.8500 52° Northeast 286 329 8,100 -660 Descending New York TRACON
02:19PM 40.3500 -74.7833 37° Northeast 294 338 8,000 -540 Descending New York TRACON
02:20PM 40.4000 -74.7167 45° Northeast 285 328 7,100 -960 Descending New York TRACON
02:21PM 40.4667 -74.6667 30° Northeast 284 327 6,100 -600 Descending New York TRACON
02:22PM 40.5333 -74.6333 21° North 281 323 6,000 -60 Descending New York TRACON
02:23PM 40.6000 -74.6167 11° North 277 319 6,000  Level New York TRACON
02:24PM 40.7000 -74.6000 North 291 335 6,000 -420 Level New York TRACON
02:25PM 40.7667 -74.5667 21° North 290 334 5,200 -540 Descending New York TRACON
02:26PM 40.8333 -74.5167 30° Northeast 275 316 5,000 -120 Descending New York TRACON
02:27PM 40.9000 -74.4500 37° Northeast 282 325 5,000  Level New York TRACON
02:28PM 40.9500 -74.3833 45° Northeast 249 287 5,100 -60 Climbing New York TRACON
02:29PM 41.0000 -74.3167 45° Northeast 252 290 4,900 -600 Descending New York TRACON
02:30PM 41.0333 -74.2500 56° Northeast 254 292 4,000 -480 Descending New York TRACON
02:31PM 41.0000 -74.1667 118° Southeast 235 270 4,000  Level New York TRACON
02:32PM 40.9500 -74.1333 153° Southeast 223 257 4,100 -240 Climbing New York TRACON
02:33PM 40.9000 -74.1000 153° Southeast 191 220 3,600 -540 Descending New York TRACON
02:34PM 40.8500 -74.0833 166° South 180 207 3,000 -600 Descending New York TRACON